sensor_id;sensor_type;location;lat;lon;timestamp;pressure;altitude;pressure_sealevel;temperature;humidity
49945;BME280;35838;49.134;9.212;2023-04-02T00:01:16;99127.59;;;9.43;81.31
49945;BME280;35838;49.134;9.212;2023-04-02T00:02:55;99127.63;;;9.39;81.89
49945;BME280;35838;49.134;9.212;2023-04-02T00:04:30;99127.53;;;9.49;81.40
49945;BME280;35838;49.134;9.212;2023-04-02T00:06:18;99129.63;;;9.16;82.32
49945;BME280;35838;49.134;9.212;2023-04-02T00:08:16;99133.88;;;9.23;82.46
49945;BME280;35838;49.134;9.212;2023-04-02T00:09:51;99137.31;;;9.22;82.76
49945;BME280;35838;49.134;9.212;2023-04-02T00:11:26;99146.72;;;9.32;82.78
49945;BME280;35838;49.134;9.212;2023-04-02T00:13:04;99138.25;;;9.15;83.29
49945;BME280;35838;49.134;9.212;2023-04-02T00:14:38;99143.41;;;9.18;83.13
49945;BME280;35838;49.134;9.212;2023-04-02T00:16:13;99140.94;;;9.08;83.40
49945;BME280;35838;49.134;9.212;2023-04-02T00:17:48;99142.50;;;9.22;83.70
49945;BME280;35838;49.134;9.212;2023-04-02T00:19:23;99140.00;;;9.13;83.23
49945;BME280;35838;49.134;9.212;2023-04-02T00:20:59;99146.16;;;9.04;83.61
49945;BME280;35838;49.134;9.212;2023-04-02T00:22:35;99148.75;;;9.02;84.50
49945;BME280;35838;49.134;9.212;2023-04-02T00:24:16;99157.53;;;8.84;84.86
49945;BME280;35838;49.134;9.212;2023-04-02T00:25:50;99155.91;;;8.75;85.79
49945;BME280;35838;49.134;9.212;2023-04-02T00:27:24;99161.03;;;8.82;86.15
49945;BME280;35838;49.134;9.212;2023-04-02T00:28:55;99166.09;;;8.94;86.16
49945;BME280;35838;49.134;9.212;2023-04-02T00:30:28;99166.84;;;9.05;86.16
49945;BME280;35838;49.134;9.212;2023-04-02T00:32:05;99172.84;;;9.07;85.81
49945;BME280;35838;49.134;9.212;2023-04-02T00:33:38;99166.69;;;9.19;85.13
49945;BME280;35838;49.134;9.212;2023-04-02T00:35:16;99162.31;;;9.29;84.63
49945;BME280;35838;49.134;9.212;2023-04-02T00:36:51;99158.84;;;9.29;84.23
49945;BME280;35838;49.134;9.212;2023-04-02T00:38:26;99157.94;;;9.31;84.13
49945;BME280;35838;49.134;9.212;2023-04-02T00:40:03;99160.69;;;9.19;83.85
49945;BME280;35838;49.134;9.212;2023-04-02T00:41:36;99165.84;;;9.19;84.18
49945;BME280;35838;49.134;9.212;2023-04-02T00:43:16;99165.91;;;9.13;84.38
49945;BME280;35838;49.134;9.212;2023-04-02T00:44:52;99169.31;;;9.18;84.22
49945;BME280;35838;49.134;9.212;2023-04-02T00:46:25;99165.97;;;9.06;84.74
49945;BME280;35838;49.134;9.212;2023-04-02T00:48:14;99171.03;;;9.19;84.59
49945;BME280;35838;49.134;9.212;2023-04-02T00:49:54;99167.53;;;9.23;83.98
49945;BME280;35838;49.134;9.212;2023-04-02T00:51:30;99166.75;;;9.13;84.35
49945;BME280;35838;49.134;9.212;2023-04-02T00:53:07;99164.22;;;9.12;84.39
49945;BME280;35838;49.134;9.212;2023-04-02T00:54:42;99164.13;;;9.21;83.95
49945;BME280;35838;49.134;9.212;2023-04-02T00:56:16;99164.09;;;9.19;84.27
49945;BME280;35838;49.134;9.212;2023-04-02T00:57:51;99160.66;;;9.20;84.16
49945;BME280;35838;49.134;9.212;2023-04-02T00:59:28;99163.28;;;9.16;83.91
49945;BME280;35838;49.134;9.212;2023-04-02T01:01:02;99172.75;;;9.20;83.86
49945;BME280;35838;49.134;9.212;2023-04-02T01:02:36;99169.41;;;9.05;83.69
49945;BME280;35838;49.134;9.212;2023-04-02T01:04:25;99167.59;;;9.17;84.15
49945;BME280;35838;49.134;9.212;2023-04-02T01:06:02;99176.16;;;9.22;84.07
49945;BME280;35838;49.134;9.212;2023-04-02T01:07:52;99176.22;;;9.19;84.27
49945;BME280;35838;49.134;9.212;2023-04-02T01:09:32;99184.09;;;9.05;84.49
49945;BME280;35838;49.134;9.212;2023-04-02T01:11:16;99178.94;;;9.05;85.35
49945;BME280;35838;49.134;9.212;2023-04-02T01:12:57;99183.44;;;8.86;85.94
49945;BME280;35838;49.134;9.212;2023-04-02T01:14:40;99187.59;;;8.99;86.02
49945;BME280;35838;49.134;9.212;2023-04-02T01:16:13;99189.41;;;8.91;86.29
49945;BME280;35838;49.134;9.212;2023-04-02T01:17:53;99189.50;;;8.80;87.33
49945;BME280;35838;49.134;9.212;2023-04-02T01:19:53;99197.16;;;8.91;87.60
49945;BME280;35838;49.134;9.212;2023-04-02T01:21:36;99194.72;;;8.72;87.72
49945;BME280;35838;49.134;9.212;2023-04-02T01:23:13;99207.75;;;8.60;88.44
49945;BME280;35838;49.134;9.212;2023-04-02T01:24:47;99201.66;;;8.66;88.54
49945;BME280;35838;49.134;9.212;2023-04-02T01:26:27;99206.06;;;8.56;88.81
49945;BME280;35838;49.134;9.212;2023-04-02T01:28:05;99210.22;;;8.74;88.83
49945;BME280;35838;49.134;9.212;2023-04-02T01:29:44;99201.56;;;8.81;88.64
49945;BME280;35838;49.134;9.212;2023-04-02T01:31:19;99210.00;;;9.02;88.23
49945;BME280;35838;49.134;9.212;2023-04-02T01:32:54;99211.72;;;9.03;87.64
49945;BME280;35838;49.134;9.212;2023-04-02T01:34:28;99203.91;;;9.11;87.38
49945;BME280;35838;49.134;9.212;2023-04-02T01:36:04;99209.91;;;9.14;87.21
49945;BME280;35838;49.134;9.212;2023-04-02T01:37:37;99201.22;;;9.21;86.32
49945;BME280;35838;49.134;9.212;2023-04-02T01:39:19;99204.81;;;9.05;86.36
49945;BME280;35838;49.134;9.212;2023-04-02T01:40:58;99208.28;;;9.04;87.07
49945;BME280;35838;49.134;9.212;2023-04-02T01:42:33;99205.66;;;9.08;86.92
49945;BME280;35838;49.134;9.212;2023-04-02T01:44:06;99214.19;;;9.20;86.42
49945;BME280;35838;49.134;9.212;2023-04-02T01:45:44;99214.28;;;9.04;86.49
49945;BME280;35838;49.134;9.212;2023-04-02T01:47:18;99214.34;;;9.01;86.61
49945;BME280;35838;49.134;9.212;2023-04-02T01:48:55;99226.34;;;9.12;86.47
49945;BME280;35838;49.134;9.212;2023-04-02T01:50:26;99216.00;;;9.08;86.42
49945;BME280;35838;49.134;9.212;2023-04-02T01:52:03;99219.34;;;9.20;86.09
49945;BME280;35838;49.134;9.212;2023-04-02T01:53:37;99214.97;;;9.28;85.71
49945;BME280;35838;49.134;9.212;2023-04-02T01:55:11;99218.50;;;9.18;85.52
49945;BME280;35838;49.134;9.212;2023-04-02T01:56:45;99215.84;;;9.25;85.79
49945;BME280;35838;49.134;9.212;2023-04-02T01:58:20;99215.94;;;9.15;85.47
49945;BME280;35838;49.134;9.212;2023-04-02T01:59:55;99218.59;;;9.07;85.52
49945;BME280;35838;49.134;9.212;2023-04-02T02:01:33;99213.44;;;9.04;85.61
49945;BME280;35838;49.134;9.212;2023-04-02T02:03:08;99219.47;;;9.07;86.01
49945;BME280;35838;49.134;9.212;2023-04-02T02:04:43;99222.00;;;9.15;85.73
49945;BME280;35838;49.134;9.212;2023-04-02T02:06:18;99223.63;;;9.24;85.63
49945;BME280;35838;49.134;9.212;2023-04-02T02:07:49;99217.78;;;9.03;85.45
49945;BME280;35838;49.134;9.212;2023-04-02T02:09:24;99218.72;;;8.93;85.70
49945;BME280;35838;49.134;9.212;2023-04-02T02:11:00;99228.09;;;9.06;85.80
49945;BME280;35838;49.134;9.212;2023-04-02T02:12:34;99218.72;;;8.91;85.59
49945;BME280;35838;49.134;9.212;2023-04-02T02:14:08;99228.13;;;9.03;86.11
49945;BME280;35838;49.134;9.212;2023-04-02T02:15:42;99224.69;;;9.01;86.00
49945;BME280;35838;49.134;9.212;2023-04-02T02:17:20;99229.03;;;8.96;85.45
49945;BME280;35838;49.134;9.212;2023-04-02T02:18:56;99228.28;;;8.85;85.90
49945;BME280;35838;49.134;9.212;2023-04-02T02:20:31;99231.69;;;8.90;85.99
49945;BME280;35838;49.134;9.212;2023-04-02T02:22:08;99233.47;;;8.85;86.10
49945;BME280;35838;49.134;9.212;2023-04-02T02:23:41;99237.88;;;8.72;86.01
49945;BME280;35838;49.134;9.212;2023-04-02T02:25:16;99241.31;;;8.71;86.67
49945;BME280;35838;49.134;9.212;2023-04-02T02:26:54;99242.97;;;8.80;86.60
49945;BME280;35838;49.134;9.212;2023-04-02T02:28:31;99240.25;;;8.95;86.64
49945;BME280;35838;49.134;9.212;2023-04-02T02:30:08;99241.00;;;9.09;85.86
49945;BME280;35838;49.134;9.212;2023-04-02T02:31:43;99233.19;;;9.13;85.27
49945;BME280;35838;49.134;9.212;2023-04-02T02:33:23;99240.94;;;9.19;85.07
49945;BME280;35838;49.134;9.212;2023-04-02T02:34:59;99236.59;;;9.21;85.09
49945;BME280;35838;49.134;9.212;2023-04-02T02:36:36;99241.81;;;9.15;85.02
49945;BME280;35838;49.134;9.212;2023-04-02T02:38:21;99242.63;;;9.21;84.98
49945;BME280;35838;49.134;9.212;2023-04-02T02:39:56;99241.03;;;9.06;84.95
49945;BME280;35838;49.134;9.212;2023-04-02T02:41:32;99242.72;;;9.12;84.84
49945;BME280;35838;49.134;9.212;2023-04-02T02:43:08;99243.50;;;9.20;84.55
49945;BME280;35838;49.134;9.212;2023-04-02T02:44:45;99246.97;;;9.18;84.64
49945;BME280;35838;49.134;9.212;2023-04-02T02:46:20;99245.25;;;9.17;84.62
49945;BME280;35838;49.134;9.212;2023-04-02T02:47:52;99242.66;;;9.18;84.96
49945;BME280;35838;49.134;9.212;2023-04-02T02:49:29;99235.75;;;9.17;84.50
49945;BME280;35838;49.134;9.212;2023-04-02T02:51:06;99242.56;;;9.29;84.49
49945;BME280;35838;49.134;9.212;2023-04-02T02:52:38;99243.56;;;9.13;83.99
49945;BME280;35838;49.134;9.212;2023-04-02T02:54:12;99241.13;;;8.99;84.75
49945;BME280;35838;49.134;9.212;2023-04-02T02:55:43;99246.31;;;8.96;84.92
49945;BME280;35838;49.134;9.212;2023-04-02T02:57:19;99247.16;;;8.96;84.99
49945;BME280;35838;49.134;9.212;2023-04-02T02:58:51;99256.63;;;8.97;85.08
49945;BME280;35838;49.134;9.212;2023-04-02T03:00:26;99257.47;;;9.02;84.90
49945;BME280;35838;49.134;9.212;2023-04-02T03:01:59;99257.44;;;9.07;84.60
49945;BME280;35838;49.134;9.212;2023-04-02T03:03:34;99261.81;;;8.97;84.86
49945;BME280;35838;49.134;9.212;2023-04-02T03:05:12;99254.09;;;8.91;85.03
49945;BME280;35838;49.134;9.212;2023-04-02T03:06:49;99260.91;;;9.03;84.95
49945;BME280;35838;49.134;9.212;2023-04-02T03:08:24;99264.25;;;9.13;84.76
49945;BME280;35838;49.134;9.212;2023-04-02T03:09:59;99261.69;;;9.11;84.47
49945;BME280;35838;49.134;9.212;2023-04-02T03:11:38;99267.72;;;9.15;84.07
49945;BME280;35838;49.134;9.212;2023-04-02T03:13:14;99272.28;;;8.85;84.50
49945;BME280;35838;49.134;9.212;2023-04-02T03:14:52;99274.84;;;8.83;84.83
49945;BME280;35838;49.134;9.212;2023-04-02T03:16:26;99279.25;;;8.73;85.27
49945;BME280;35838;49.134;9.212;2023-04-02T03:18:01;99282.66;;;8.80;85.13
49945;BME280;35838;49.134;9.212;2023-04-02T03:19:33;99281.72;;;8.92;85.03
49945;BME280;35838;49.134;9.212;2023-04-02T03:21:19;99281.63;;;9.01;84.69
49945;BME280;35838;49.134;9.212;2023-04-02T03:22:57;99273.78;;;9.12;84.20
49945;BME280;35838;49.134;9.212;2023-04-02T03:24:35;99278.06;;;9.18;83.63
49945;BME280;35838;49.134;9.212;2023-04-02T03:26:11;99279.72;;;9.23;83.59
49945;BME280;35838;49.134;9.212;2023-04-02T03:27:45;99286.59;;;9.26;82.86
49945;BME280;35838;49.134;9.212;2023-04-02T03:29:21;99274.47;;;9.31;82.53
49945;BME280;35838;49.134;9.212;2023-04-02T03:30:57;99274.50;;;9.30;82.45
49945;BME280;35838;49.134;9.212;2023-04-02T03:32:30;99276.16;;;9.35;82.25
49945;BME280;35838;49.134;9.212;2023-04-02T03:34:07;99281.44;;;9.23;82.28
49945;BME280;35838;49.134;9.212;2023-04-02T03:35:43;99273.75;;;9.15;82.74
49945;BME280;35838;49.134;9.212;2023-04-02T03:37:19;99281.50;;;9.20;82.73
49945;BME280;35838;49.134;9.212;2023-04-02T03:38:55;99286.59;;;9.26;82.47
49945;BME280;35838;49.134;9.212;2023-04-02T03:40:32;99282.44;;;9.08;82.73
49945;BME280;35838;49.134;9.212;2023-04-02T03:42:08;99293.72;;;9.02;82.93
49945;BME280;35838;49.134;9.212;2023-04-02T03:43:46;99301.53;;;8.94;83.27
49945;BME280;35838;49.134;9.212;2023-04-02T03:45:22;99300.78;;;8.80;83.70
49945;BME280;35838;49.134;9.212;2023-04-02T03:46:57;99300.72;;;8.83;83.87
49945;BME280;35838;49.134;9.212;2023-04-02T03:48:37;99299.00;;;8.82;84.09
49945;BME280;35838;49.134;9.212;2023-04-02T03:50:10;99302.47;;;8.83;84.26
49945;BME280;35838;49.134;9.212;2023-04-02T03:51:48;99302.41;;;8.92;84.34
49945;BME280;35838;49.134;9.212;2023-04-02T03:53:27;99311.13;;;8.74;84.09
49945;BME280;35838;49.134;9.212;2023-04-02T03:55:07;99308.56;;;8.72;84.60
49945;BME280;35838;49.134;9.212;2023-04-02T03:56:45;99311.13;;;8.80;84.93
49945;BME280;35838;49.134;9.212;2023-04-02T03:58:19;99318.03;;;8.76;85.03
49945;BME280;35838;49.134;9.212;2023-04-02T03:59:56;99313.63;;;8.88;84.99
49945;BME280;35838;49.134;9.212;2023-04-02T04:01:32;99314.44;;;8.96;84.11
49945;BME280;35838;49.134;9.212;2023-04-02T04:03:09;99317.88;;;9.01;83.88
49945;BME280;35838;49.134;9.212;2023-04-02T04:04:44;99316.97;;;9.08;83.55
49945;BME280;35838;49.134;9.212;2023-04-02T04:06:19;99315.22;;;9.07;82.83
49945;BME280;35838;49.134;9.212;2023-04-02T04:07:54;99318.59;;;9.17;83.22
49945;BME280;35838;49.134;9.212;2023-04-02T04:09:30;99317.75;;;9.17;82.67
49945;BME280;35838;49.134;9.212;2023-04-02T04:11:06;99316.84;;;9.22;82.32
49945;BME280;35838;49.134;9.212;2023-04-02T04:12:41;99310.78;;;9.25;81.92
49945;BME280;35838;49.134;9.212;2023-04-02T04:14:16;99318.56;;;9.23;81.81
49945;BME280;35838;49.134;9.212;2023-04-02T04:15:49;99314.22;;;9.27;81.85
49945;BME280;35838;49.134;9.212;2023-04-02T04:17:25;99323.16;;;8.87;82.55
49945;BME280;35838;49.134;9.212;2023-04-02T04:19:02;99327.38;;;8.99;82.87
49945;BME280;35838;49.134;9.212;2023-04-02T04:20:35;99332.59;;;8.90;83.41
49945;BME280;35838;49.134;9.212;2023-04-02T04:22:16;99335.97;;;9.03;83.32
49945;BME280;35838;49.134;9.212;2023-04-02T04:23:49;99331.63;;;9.09;83.34
49945;BME280;35838;49.134;9.212;2023-04-02T04:25:26;99333.31;;;9.15;83.05
49945;BME280;35838;49.134;9.212;2023-04-02T04:27:04;99335.88;;;9.14;82.68
49945;BME280;35838;49.134;9.212;2023-04-02T04:28:40;99347.31;;;8.82;83.38
49945;BME280;35838;49.134;9.212;2023-04-02T04:30:17;99349.03;;;8.86;83.74
49945;BME280;35838;49.134;9.212;2023-04-02T04:31:54;99347.22;;;9.00;83.86
49945;BME280;35838;49.134;9.212;2023-04-02T04:33:29;99349.78;;;9.05;83.43
49945;BME280;35838;49.134;9.212;2023-04-02T04:35:05;99343.69;;;9.12;83.57
49945;BME280;35838;49.134;9.212;2023-04-02T04:36:41;99354.00;;;9.17;83.15
49945;BME280;35838;49.134;9.212;2023-04-02T04:38:28;99353.19;;;9.12;82.88
49945;BME280;35838;49.134;9.212;2023-04-02T04:40:04;99363.66;;;8.93;83.52
49945;BME280;35838;49.134;9.212;2023-04-02T04:41:44;99358.47;;;8.94;83.44
49945;BME280;35838;49.134;9.212;2023-04-02T04:43:20;99368.75;;;9.04;83.78
49945;BME280;35838;49.134;9.212;2023-04-02T04:44:59;99368.84;;;8.90;83.94
49945;BME280;35838;49.134;9.212;2023-04-02T04:46:37;99376.53;;;9.02;83.77
49945;BME280;35838;49.134;9.212;2023-04-02T04:48:12;99371.31;;;9.10;83.64
49945;BME280;35838;49.134;9.212;2023-04-02T04:49:49;99378.19;;;9.14;83.64
49945;BME280;35838;49.134;9.212;2023-04-02T04:51:26;99379.91;;;9.14;83.29
49945;BME280;35838;49.134;9.212;2023-04-02T04:53:04;99373.97;;;8.99;83.38
49945;BME280;35838;49.134;9.212;2023-04-02T04:54:38;99386.13;;;8.85;83.93
49945;BME280;35838;49.134;9.212;2023-04-02T04:56:12;99386.94;;;8.93;84.57
49945;BME280;35838;49.134;9.212;2023-04-02T04:57:52;99396.47;;;8.83;84.63
49945;BME280;35838;49.134;9.212;2023-04-02T04:59:28;99392.09;;;8.96;84.72
49945;BME280;35838;49.134;9.212;2023-04-02T05:01:04;99392.00;;;9.10;84.65
49945;BME280;35838;49.134;9.212;2023-04-02T05:02:40;99392.03;;;9.05;84.64
49945;BME280;35838;49.134;9.212;2023-04-02T05:04:18;99397.19;;;9.12;84.72
49945;BME280;35838;49.134;9.212;2023-04-02T05:05:57;99400.72;;;8.97;84.72
49945;BME280;35838;49.134;9.212;2023-04-02T05:07:30;99404.19;;;8.99;84.92
49945;BME280;35838;49.134;9.212;2023-04-02T05:09:06;99409.28;;;9.06;85.00
49945;BME280;35838;49.134;9.212;2023-04-02T05:10:44;99409.28;;;9.09;85.05
49945;BME280;35838;49.134;9.212;2023-04-02T05:12:20;99407.50;;;9.15;84.79
49945;BME280;35838;49.134;9.212;2023-04-02T05:14:04;99407.47;;;9.24;84.50
49945;BME280;35838;49.134;9.212;2023-04-02T05:15:39;99409.19;;;9.25;84.59
49945;BME280;35838;49.134;9.212;2023-04-02T05:17:16;99415.22;;;9.24;84.35
49945;BME280;35838;49.134;9.212;2023-04-02T05:18:55;99421.41;;;9.00;84.88
49945;BME280;35838;49.134;9.212;2023-04-02T05:20:31;99418.81;;;9.03;85.22
49945;BME280;35838;49.134;9.212;2023-04-02T05:22:11;99424.78;;;9.13;85.14
49945;BME280;35838;49.134;9.212;2023-04-02T05:23:47;99422.16;;;9.20;85.06
49945;BME280;35838;49.134;9.212;2023-04-02T05:25:20;99427.38;;;9.16;84.81
49945;BME280;35838;49.134;9.212;2023-04-02T05:26:56;99426.59;;;8.98;85.32
49945;BME280;35838;49.134;9.212;2023-04-02T05:28:31;99428.31;;;8.99;85.43
49945;BME280;35838;49.134;9.212;2023-04-02T05:30:12;99438.69;;;8.96;85.51
49945;BME280;35838;49.134;9.212;2023-04-02T05:31:48;99428.28;;;9.07;86.05
49945;BME280;35838;49.134;9.212;2023-04-02T05:33:27;99436.91;;;9.07;85.81
49945;BME280;35838;49.134;9.212;2023-04-02T05:34:58;99438.63;;;9.05;85.67
49945;BME280;35838;49.134;9.212;2023-04-02T05:36:35;99440.47;;;8.82;86.26
49945;BME280;35838;49.134;9.212;2023-04-02T05:38:12;99445.66;;;8.85;86.81
49945;BME280;35838;49.134;9.212;2023-04-02T05:39:51;99451.69;;;8.84;87.30
49945;BME280;35838;49.134;9.212;2023-04-02T05:41:25;99448.22;;;8.88;87.48
49945;BME280;35838;49.134;9.212;2023-04-02T05:43:02;99457.63;;;9.03;87.49
49945;BME280;35838;49.134;9.212;2023-04-02T05:44:37;99450.72;;;9.06;86.98
49945;BME280;35838;49.134;9.212;2023-04-02T05:46:16;99451.56;;;9.05;86.76
49945;BME280;35838;49.134;9.212;2023-04-02T05:47:51;99454.22;;;8.99;86.64
49945;BME280;35838;49.134;9.212;2023-04-02T05:49:30;99461.06;;;9.09;86.66
49945;BME280;35838;49.134;9.212;2023-04-02T05:51:05;99460.16;;;9.17;86.62
49945;BME280;35838;49.134;9.212;2023-04-02T05:52:41;99464.50;;;9.16;86.53
49945;BME280;35838;49.134;9.212;2023-04-02T05:54:19;99466.19;;;9.19;86.21
49945;BME280;35838;49.134;9.212;2023-04-02T05:55:55;99467.88;;;9.23;86.12
49945;BME280;35838;49.134;9.212;2023-04-02T05:57:30;99471.31;;;9.30;86.14
49945;BME280;35838;49.134;9.212;2023-04-02T05:59:06;99470.41;;;9.35;85.65
49945;BME280;35838;49.134;9.212;2023-04-02T06:00:53;99469.63;;;9.22;85.11
49945;BME280;35838;49.134;9.212;2023-04-02T06:02:30;99473.06;;;9.26;85.64
49945;BME280;35838;49.134;9.212;2023-04-02T06:04:07;99473.06;;;9.29;85.83
49945;BME280;35838;49.134;9.212;2023-04-02T06:05:45;99481.63;;;9.37;85.44
49945;BME280;35838;49.134;9.212;2023-04-02T06:07:17;99472.97;;;9.41;85.42
49945;BME280;35838;49.134;9.212;2023-04-02T06:08:54;99482.44;;;9.44;85.41
49945;BME280;35838;49.134;9.212;2023-04-02T06:10:30;99478.13;;;9.45;85.24
49945;BME280;35838;49.134;9.212;2023-04-02T06:12:09;99487.63;;;9.46;84.85
49945;BME280;35838;49.134;9.212;2023-04-02T06:13:45;99487.63;;;9.46;84.68
49945;BME280;35838;49.134;9.212;2023-04-02T06:15:19;99485.88;;;9.49;84.46
49945;BME280;35838;49.134;9.212;2023-04-02T06:16:53;99488.44;;;9.54;84.16
49945;BME280;35838;49.134;9.212;2023-04-02T06:18:29;99484.09;;;9.54;84.08
49945;BME280;35838;49.134;9.212;2023-04-02T06:20:05;99488.38;;;9.60;83.69
49945;BME280;35838;49.134;9.212;2023-04-02T06:21:42;99489.25;;;9.62;83.54
49945;BME280;35838;49.134;9.212;2023-04-02T06:23:17;99495.47;;;9.32;83.72
49945;BME280;35838;49.134;9.212;2023-04-02T06:24:52;99503.16;;;9.47;84.25
49945;BME280;35838;49.134;9.212;2023-04-02T06:26:30;99505.75;;;9.43;84.40
49945;BME280;35838;49.134;9.212;2023-04-02T06:28:06;99507.47;;;9.47;84.30
49945;BME280;35838;49.134;9.212;2023-04-02T06:29:44;99512.63;;;9.50;84.51
49945;BME280;35838;49.134;9.212;2023-04-02T06:31:24;99511.75;;;9.52;84.43
49945;BME280;35838;49.134;9.212;2023-04-02T06:32:57;99513.47;;;9.55;84.25
49945;BME280;35838;49.134;9.212;2023-04-02T06:34:34;99511.72;;;9.55;83.71
49945;BME280;35838;49.134;9.212;2023-04-02T06:36:08;99509.28;;;9.32;84.04
49945;BME280;35838;49.134;9.212;2023-04-02T06:37:43;99520.56;;;9.19;85.06
49945;BME280;35838;49.134;9.212;2023-04-02T06:39:18;99526.56;;;9.32;85.57
49945;BME280;35838;49.134;9.212;2023-04-02T06:40:53;99533.41;;;9.36;85.54
49945;BME280;35838;49.134;9.212;2023-04-02T06:42:29;99538.75;;;8.97;85.91
49945;BME280;35838;49.134;9.212;2023-04-02T06:44:04;99537.91;;;8.97;86.78
49945;BME280;35838;49.134;9.212;2023-04-02T06:45:40;99549.16;;;8.82;87.42
49945;BME280;35838;49.134;9.212;2023-04-02T06:47:17;99552.63;;;8.79;87.69
49945;BME280;35838;49.134;9.212;2023-04-02T06:48:54;99556.06;;;8.83;88.01
49945;BME280;35838;49.134;9.212;2023-04-02T06:50:34;99557.78;;;8.77;88.49
49945;BME280;35838;49.134;9.212;2023-04-02T06:52:11;99560.38;;;8.88;88.76
49945;BME280;35838;49.134;9.212;2023-04-02T06:53:47;99570.72;;;8.88;89.17
49945;BME280;35838;49.134;9.212;2023-04-02T06:55:26;99565.50;;;8.99;89.47
49945;BME280;35838;49.134;9.212;2023-04-02T06:57:02;99574.19;;;8.86;89.59
49945;BME280;35838;49.134;9.212;2023-04-02T06:58:37;99572.41;;;8.97;90.04
49945;BME280;35838;49.134;9.212;2023-04-02T07:00:13;99586.22;;;8.98;90.11
49945;BME280;35838;49.134;9.212;2023-04-02T07:01:56;99584.44;;;9.09;90.44
49945;BME280;35838;49.134;9.212;2023-04-02T07:03:32;99581.00;;;9.18;90.03
49945;BME280;35838;49.134;9.212;2023-04-02T07:05:06;99582.69;;;9.28;89.35
49945;BME280;35838;49.134;9.212;2023-04-02T07:06:43;99579.19;;;9.37;88.75
49945;BME280;35838;49.134;9.212;2023-04-02T07:08:17;99581.78;;;9.38;88.34
49945;BME280;35838;49.134;9.212;2023-04-02T07:09:51;99580.91;;;9.41;88.28
49945;BME280;35838;49.134;9.212;2023-04-02T07:11:24;99581.72;;;9.48;88.29
49945;BME280;35838;49.134;9.212;2023-04-02T07:12:58;99586.00;;;9.53;87.68
49945;BME280;35838;49.134;9.212;2023-04-02T07:14:32;99586.84;;;9.57;87.46
49945;BME280;35838;49.134;9.212;2023-04-02T07:16:07;99588.72;;;9.32;87.41
49945;BME280;35838;49.134;9.212;2023-04-02T07:17:44;99591.25;;;9.39;87.62
49945;BME280;35838;49.134;9.212;2023-04-02T07:19:19;99591.22;;;9.49;87.39
49945;BME280;35838;49.134;9.212;2023-04-02T07:20:54;99598.09;;;9.53;87.01
49945;BME280;35838;49.134;9.212;2023-04-02T07:22:30;99600.88;;;9.02;88.71
49945;BME280;35838;49.134;9.212;2023-04-02T07:24:04;99615.59;;;8.75;90.52
49945;BME280;35838;49.134;9.212;2023-04-02T07:25:38;99624.22;;;8.82;92.00
49945;BME280;35838;49.134;9.212;2023-04-02T07:27:12;99623.34;;;8.92;92.41
49945;BME280;35838;49.134;9.212;2023-04-02T07:28:46;99638.84;;;9.11;92.97
49945;BME280;35838;49.134;9.212;2023-04-02T07:30:20;99643.13;;;9.18;93.19
49945;BME280;35838;49.134;9.212;2023-04-02T07:31:53;99645.72;;;9.13;93.11
49945;BME280;35838;49.134;9.212;2023-04-02T07:33:28;99648.25;;;9.30;93.34
49945;BME280;35838;49.134;9.212;2023-04-02T07:35:02;99645.63;;;9.46;93.17
49945;BME280;35838;49.134;9.212;2023-04-02T07:36:35;99646.47;;;9.54;92.91
49945;BME280;35838;49.134;9.212;2023-04-02T07:38:11;99647.31;;;9.59;93.08
49945;BME280;35838;49.134;9.212;2023-04-02T07:39:45;99648.25;;;9.38;92.87
49945;BME280;35838;49.134;9.212;2023-04-02T07:41:19;99638.75;;;9.35;93.20
49945;BME280;35838;49.134;9.212;2023-04-02T07:42:52;99644.72;;;9.57;92.87
49945;BME280;35838;49.134;9.212;2023-04-02T07:44:26;99648.19;;;9.60;92.01
49945;BME280;35838;49.134;9.212;2023-04-02T07:46:00;99647.34;;;9.50;91.95
49945;BME280;35838;49.134;9.212;2023-04-02T07:47:34;99649.88;;;9.62;92.05
49945;BME280;35838;49.134;9.212;2023-04-02T07:49:07;99643.88;;;9.55;91.80
49945;BME280;35838;49.134;9.212;2023-04-02T07:50:41;99648.13;;;9.67;91.46
49945;BME280;35838;49.134;9.212;2023-04-02T07:52:14;99655.88;;;9.72;91.51
49945;BME280;35838;49.134;9.212;2023-04-02T07:53:51;99655.84;;;9.80;91.27
49945;BME280;35838;49.134;9.212;2023-04-02T07:55:25;99651.59;;;9.62;91.06
49945;BME280;35838;49.134;9.212;2023-04-02T07:56:59;99651.53;;;9.76;90.90
49945;BME280;35838;49.134;9.212;2023-04-02T07:58:32;99658.41;;;9.83;90.47
49945;BME280;35838;49.134;9.212;2023-04-02T08:00:07;99664.47;;;9.88;90.47
49945;BME280;35838;49.134;9.212;2023-04-02T08:01:41;99661.97;;;9.60;90.21
49945;BME280;35838;49.134;9.212;2023-04-02T08:03:15;99664.50;;;9.79;90.26
49945;BME280;35838;49.134;9.212;2023-04-02T08:04:46;99669.63;;;9.85;90.68
49945;BME280;35838;49.134;9.212;2023-04-02T08:06:20;99674.81;;;9.91;90.51
49945;BME280;35838;49.134;9.212;2023-04-02T08:07:55;99668.75;;;9.87;89.97
49945;BME280;35838;49.134;9.212;2023-04-02T08:09:31;99671.38;;;9.89;90.14
49945;BME280;35838;49.134;9.212;2023-04-02T08:11:05;99664.44;;;9.93;89.63
49945;BME280;35838;49.134;9.212;2023-04-02T08:12:38;99669.56;;;10.03;89.39
49945;BME280;35838;49.134;9.212;2023-04-02T08:14:12;99670.44;;;10.04;88.83
49945;BME280;35838;49.134;9.212;2023-04-02T08:15:46;99669.53;;;10.05;88.45
49945;BME280;35838;49.134;9.212;2023-04-02T08:17:19;99668.75;;;9.94;88.04
49945;BME280;35838;49.134;9.212;2023-04-02T08:18:53;99673.25;;;9.56;88.87
49945;BME280;35838;49.134;9.212;2023-04-02T08:20:27;99678.41;;;9.53;89.42
49945;BME280;35838;49.134;9.212;2023-04-02T08:22:01;99681.00;;;9.53;89.74
49945;BME280;35838;49.134;9.212;2023-04-02T08:23:35;99680.09;;;9.72;90.12
49945;BME280;35838;49.134;9.212;2023-04-02T08:25:11;99686.91;;;9.89;90.23
49945;BME280;35838;49.134;9.212;2023-04-02T08:26:45;99687.00;;;9.70;90.02
49945;BME280;35838;49.134;9.212;2023-04-02T08:28:19;99693.91;;;9.71;89.65
49945;BME280;35838;49.134;9.212;2023-04-02T08:29:52;99695.63;;;9.72;89.54
49945;BME280;35838;49.134;9.212;2023-04-02T08:31:26;99695.53;;;9.96;88.86
49945;BME280;35838;49.134;9.212;2023-04-02T08:33:00;99687.66;;;10.10;88.06
49945;BME280;35838;49.134;9.212;2023-04-02T08:34:33;99690.28;;;10.07;87.38
49945;BME280;35838;49.134;9.212;2023-04-02T08:36:10;99691.97;;;10.17;87.23